createdAt,value
2022-12-11T00:00:54.343Z,-1.31
2022-12-11T00:03:22.109Z,-1.26
2022-12-11T00:05:51.723Z,-1.10
2022-12-11T00:08:19.474Z,-1.13
2022-12-11T00:10:49.898Z,-1.20
2022-12-11T00:13:17.770Z,-1.11
2022-12-11T00:15:45.547Z,-1.13
2022-12-11T00:18:14.755Z,-1.17
2022-12-11T00:20:42.934Z,-1.26
2022-12-11T00:23:12.422Z,-1.33
2022-12-11T00:25:43.186Z,-1.25
2022-12-11T00:28:11.050Z,-1.02
2022-12-11T00:30:41.954Z,-1.19
2022-12-11T00:33:10.678Z,-1.24
2022-12-11T00:35:39.506Z,-1.30
2022-12-11T00:38:07.693Z,-1.21
2022-12-11T00:40:37.185Z,-1.21
2022-12-11T00:43:05.346Z,-1.32
2022-12-11T00:45:37.355Z,-1.19
2022-12-11T00:48:05.704Z,-1.12
2022-12-11T00:50:33.522Z,-1.39
2022-12-11T00:53:01.497Z,-1.54
2022-12-11T00:55:29.575Z,-1.63
2022-12-11T00:57:59.052Z,-1.70
2022-12-11T01:00:26.908Z,-1.81
2022-12-11T01:02:55.044Z,-1.87
2022-12-11T01:05:22.917Z,-1.94
2022-12-11T01:07:50.705Z,-1.99
2022-12-11T01:10:27.616Z,-1.91
2022-12-11T01:13:00.147Z,-1.83
2022-12-11T01:15:30.869Z,-1.82
2022-12-11T01:17:59.374Z,-1.77
2022-12-11T01:20:28.087Z,-1.88
2022-12-11T01:22:59.133Z,-1.98
2022-12-11T01:25:27.412Z,-1.94
2022-12-11T01:27:56.466Z,-2.00
2022-12-11T01:30:26.807Z,-2.03
2022-12-11T01:32:54.629Z,-2.07
2022-12-11T01:35:23.076Z,-2.12
2022-12-11T01:37:51.307Z,-1.86
2022-12-11T01:40:21.382Z,-2.13
2022-12-11T01:42:49.262Z,-2.19
2022-12-11T01:45:44.564Z,-2.24
2022-12-11T01:48:15.318Z,-2.17
2022-12-11T01:50:47.036Z,-2.24
2022-12-11T01:53:19.530Z,-2.10
2022-12-11T01:55:48.664Z,-2.42
2022-12-11T01:58:19.205Z,-2.39
2022-12-11T02:00:48.521Z,-2.47
2022-12-11T02:03:16.498Z,-2.68
2022-12-11T02:05:44.753Z,-2.64
2022-12-11T02:08:13.352Z,-2.69
2022-12-11T02:10:53.634Z,-2.84
2022-12-11T02:13:28.923Z,-2.99
2022-12-11T02:16:04.852Z,-2.93
2022-12-11T02:18:40.092Z,-2.95
2022-12-11T02:21:12.099Z,-2.96
2022-12-11T02:24:01.922Z,-2.82
2022-12-11T02:27:04.486Z,-2.87
2022-12-11T02:29:38.627Z,-2.86
2022-12-11T02:32:13.732Z,-2.95
2022-12-11T02:34:44.313Z,-2.92
2022-12-11T02:37:17.449Z,-2.87
2022-12-11T02:39:48.168Z,-2.81
2022-12-11T02:42:17.278Z,-2.80
2022-12-11T02:44:49.888Z,-2.85
2022-12-11T02:47:21.002Z,-3.07
2022-12-11T02:49:50.813Z,-3.09
2022-12-11T02:52:21.408Z,-3.12
2022-12-11T02:54:53.135Z,-3.20
2022-12-11T02:57:29.180Z,-3.15
2022-12-11T02:59:58.414Z,-3.13
2022-12-11T03:02:26.644Z,-3.05
2022-12-11T03:04:55.144Z,-3.04
2022-12-11T03:07:26.288Z,-2.73
2022-12-11T03:09:54.386Z,-2.64
2022-12-11T03:12:28.991Z,-2.54
2022-12-11T03:15:00.901Z,-2.42
2022-12-11T03:17:31.856Z,-2.32
2022-12-11T03:20:06.025Z,-2.44
2022-12-11T03:22:41.630Z,-2.33
2022-12-11T03:25:14.673Z,-2.29
2022-12-11T03:27:49.318Z,-2.28
2022-12-11T03:30:22.618Z,-2.21
2022-12-11T03:32:54.302Z,-2.19
2022-12-11T03:35:26.657Z,-2.14
2022-12-11T03:37:58.945Z,-2.30
2022-12-11T03:40:28.979Z,-2.27
2022-12-11T03:42:58.913Z,-2.19
2022-12-11T03:45:30.873Z,-2.14
2022-12-11T03:48:00.753Z,-2.09
2022-12-11T03:50:32.549Z,-2.00
2022-12-11T03:53:02.643Z,-2.17
2022-12-11T03:55:31.548Z,-2.38
2022-12-11T03:57:59.391Z,-2.33
2022-12-11T04:00:29.231Z,-2.36
2022-12-11T04:03:16.040Z,-2.36
2022-12-11T04:05:46.032Z,-2.38
2022-12-11T04:08:14.481Z,-2.70
2022-12-11T04:10:42.577Z,-2.74
2022-12-11T04:13:11.259Z,-2.95
2022-12-11T04:15:40.448Z,-3.17
2022-12-11T04:18:26.997Z,-3.25
2022-12-11T04:21:12.978Z,-3.36
2022-12-11T04:23:57.983Z,-3.32
2022-12-11T04:26:26.030Z,-3.39
2022-12-11T04:28:53.863Z,-3.44
2022-12-11T04:31:23.774Z,-3.61
2022-12-11T04:33:51.762Z,-3.62
2022-12-11T04:36:19.705Z,-3.70
2022-12-11T04:38:47.518Z,-3.63
2022-12-11T04:41:17.539Z,-3.64
2022-12-11T04:43:46.390Z,-3.63
2022-12-11T04:46:16.507Z,-3.72
2022-12-11T04:48:47.854Z,-3.95
2022-12-11T04:51:18.749Z,-3.93
2022-12-11T04:53:46.620Z,-3.99
2022-12-11T04:56:16.926Z,-3.98
2022-12-11T04:58:45.313Z,-4.07
2022-12-11T05:01:14.948Z,-4.09
2022-12-11T05:03:43.928Z,-3.96
2022-12-11T05:06:13.197Z,-4.02
2022-12-11T05:08:42.591Z,-4.01
2022-12-11T05:11:11.821Z,-3.90
2022-12-11T05:13:40.506Z,-4.00
2022-12-11T05:16:12.536Z,-3.97
2022-12-11T05:18:40.712Z,-4.04
2022-12-11T05:21:11.903Z,-3.97
2022-12-11T05:23:41.701Z,-4.08
2022-12-11T05:26:12.399Z,-4.03
2022-12-11T05:28:41.166Z,-4.16
2022-12-11T05:31:12.797Z,-4.01
2022-12-11T05:33:40.663Z,-3.95
2022-12-11T05:36:09.569Z,-4.06
2022-12-11T05:38:37.399Z,-4.10
2022-12-11T05:41:07.902Z,-4.22
2022-12-11T05:43:37.421Z,-4.18
2022-12-11T05:46:09.110Z,-4.16
2022-12-11T05:48:38.322Z,-4.11
2022-12-11T05:51:08.294Z,-4.29
2022-12-11T05:53:36.709Z,-4.26
2022-12-11T05:56:08.078Z,-4.28
2022-12-11T05:58:36.207Z,-4.20
2022-12-11T06:01:09.155Z,-4.27
2022-12-11T06:03:36.953Z,-4.08
2022-12-11T06:06:05.258Z,-4.15
2022-12-11T06:08:33.744Z,-4.29
2022-12-11T06:11:01.810Z,-4.18
2022-12-11T06:13:31.280Z,-4.27
2022-12-11T06:16:02.951Z,-4.23
2022-12-11T06:18:31.143Z,-4.18
2022-12-11T06:20:59.252Z,-3.95
2022-12-11T06:23:26.954Z,-4.03
2022-12-11T06:25:54.695Z,-4.11
2022-12-11T06:28:22.525Z,-4.18
2022-12-11T06:30:51.622Z,-4.22
2022-12-11T06:33:19.376Z,-4.26
2022-12-11T06:35:47.209Z,-4.49
2022-12-11T06:38:14.970Z,-4.49
2022-12-11T06:40:42.690Z,-4.55
2022-12-11T06:43:10.793Z,-4.42
2022-12-11T06:45:39.064Z,-4.41
2022-12-11T06:48:08.280Z,-4.36
2022-12-11T06:50:36.045Z,-4.29
2022-12-11T06:53:03.846Z,-4.36
2022-12-11T06:55:31.628Z,-4.48
2022-12-11T06:57:59.387Z,-4.43
2022-12-11T07:00:27.385Z,-4.43
2022-12-11T07:02:55.188Z,-4.27
2022-12-11T07:05:24.684Z,-4.36
2022-12-11T07:07:55.673Z,-4.74
2022-12-11T07:10:24.869Z,-4.71
2022-12-11T07:12:53.607Z,-4.64
2022-12-11T07:15:21.962Z,-4.59
2022-12-11T07:17:49.868Z,-4.60
2022-12-11T07:20:17.950Z,-4.51
2022-12-11T07:22:47.125Z,-4.53
2022-12-11T07:25:15.686Z,-4.55
2022-12-11T07:27:43.641Z,-4.67
2022-12-11T07:30:12.653Z,-4.42
2022-12-11T07:32:40.465Z,-4.36
2022-12-11T07:35:09.748Z,-4.49
2022-12-11T07:37:38.238Z,-4.29
2022-12-11T07:40:08.996Z,-4.30
2022-12-11T07:42:39.245Z,-4.06
2022-12-11T07:45:12.197Z,-4.03
2022-12-11T07:47:40.212Z,-4.08
2022-12-11T07:50:08.275Z,-4.03
2022-12-11T07:52:36.310Z,-4.22
2022-12-11T07:55:04.532Z,-4.28
2022-12-11T07:57:33.715Z,-4.26
2022-12-11T08:00:01.577Z,-4.11
2022-12-11T08:02:34.029Z,-4.21
2022-12-11T08:05:05.258Z,-4.24
2022-12-11T08:07:35.383Z,-4.19
2022-12-11T08:10:03.173Z,-4.19
2022-12-11T08:12:30.986Z,-4.13
2022-12-11T08:15:00.135Z,-4.12
2022-12-11T08:17:31.026Z,-4.03
2022-12-11T08:20:01.731Z,-4.10
2022-12-11T08:22:29.484Z,-4.19
2022-12-11T08:24:57.324Z,-4.19
2022-12-11T08:27:26.630Z,-4.09
2022-12-11T08:29:54.395Z,-4.13
2022-12-11T08:32:23.540Z,-4.22
2022-12-11T08:34:52.652Z,-4.05
2022-12-11T08:37:20.563Z,-3.92
2022-12-11T08:39:48.640Z,-3.88
2022-12-11T08:42:16.523Z,-3.89
2022-12-11T08:44:44.278Z,-3.80
2022-12-11T08:47:12.067Z,-3.57
2022-12-11T08:49:41.328Z,-3.46
2022-12-11T08:52:09.095Z,-3.51
2022-12-11T08:54:38.305Z,-3.61
2022-12-11T08:57:06.571Z,-3.64
2022-12-11T08:59:34.597Z,-3.69
2022-12-11T09:02:02.313Z,-3.54
2022-12-11T09:04:30.272Z,-3.56
2022-12-11T09:06:59.549Z,-3.66
2022-12-11T09:09:27.284Z,-3.64
2022-12-11T09:11:55.370Z,-3.59
2022-12-11T09:14:23.333Z,-3.57
2022-12-11T09:16:51.185Z,-3.71
2022-12-11T09:19:18.971Z,-3.84
2022-12-11T09:21:47.055Z,-3.79
2022-12-11T09:24:16.659Z,-3.86
2022-12-11T09:26:44.479Z,-3.69
2022-12-11T09:29:12.956Z,-3.89
2022-12-11T09:31:41.056Z,-3.83
2022-12-11T09:34:11.401Z,-4.04
2022-12-11T09:36:40.204Z,-3.84
2022-12-11T09:39:10.154Z,-3.77
2022-12-11T09:41:41.514Z,-3.71
2022-12-11T09:44:32.764Z,-3.49
2022-12-11T09:47:00.902Z,-3.33
2022-12-11T09:49:36.355Z,-3.42
2022-12-11T09:52:12.011Z,-3.43
2022-12-11T09:54:44.984Z,-3.49
2022-12-11T09:57:29.064Z,-3.38
2022-12-11T10:00:09.652Z,-3.38
2022-12-11T10:02:51.800Z,-3.38
2022-12-11T10:05:31.041Z,-3.35
2022-12-11T10:08:05.293Z,-3.12
2022-12-11T10:10:42.783Z,-2.98
2022-12-11T10:13:24.920Z,-3.05
2022-12-11T10:15:57.271Z,-2.98
2022-12-11T10:18:27.334Z,-2.93
2022-12-11T10:20:57.131Z,-2.65
2022-12-11T10:23:35.474Z,-2.91
2022-12-11T10:26:06.915Z,-2.87
2022-12-11T10:28:36.789Z,-2.67
2022-12-11T10:31:12.046Z,-2.81
2022-12-11T10:33:47.909Z,-2.53
2022-12-11T10:36:19.989Z,-2.78
2022-12-11T10:38:47.897Z,-2.90
2022-12-11T10:41:21.155Z,-2.96
2022-12-11T10:43:51.945Z,-3.00
2022-12-11T10:46:21.826Z,-2.89
2022-12-11T10:48:50.866Z,-2.76
2022-12-11T10:51:18.860Z,-2.63
2022-12-11T10:53:51.984Z,-2.66
2022-12-11T10:56:27.297Z,-2.56
2022-12-11T10:58:58.668Z,-2.67
2022-12-11T11:01:28.833Z,-2.62
2022-12-11T11:04:01.285Z,-2.27
2022-12-11T11:06:29.147Z,-2.46
2022-12-11T11:08:58.899Z,-2.23
2022-12-11T11:11:30.025Z,-2.02
2022-12-11T11:14:15.305Z,-2.26
2022-12-11T11:16:45.814Z,-2.31
2022-12-11T11:19:22.063Z,-2.43
2022-12-11T11:21:52.724Z,-2.46
2022-12-11T11:24:34.709Z,-2.30
2022-12-11T11:27:18.007Z,-2.43
2022-12-11T11:29:52.828Z,-2.41
2022-12-11T11:32:24.584Z,-1.91
2022-12-11T11:34:52.350Z,-2.47
2022-12-11T11:37:27.210Z,-2.48
2022-12-11T11:39:59.210Z,-2.22
2022-12-11T11:42:31.280Z,-2.38
2022-12-11T11:45:08.036Z,-2.46
2022-12-11T11:47:40.463Z,-2.42
2022-12-11T11:50:13.823Z,-2.39
2022-12-11T11:52:47.658Z,-2.27
2022-12-11T11:55:22.366Z,-2.34
2022-12-11T11:57:58.594Z,-2.27
2022-12-11T12:00:33.569Z,-2.13
2022-12-11T12:03:07.120Z,-1.88
2022-12-11T12:05:44.299Z,-1.55
2022-12-11T12:08:18.259Z,-1.40
2022-12-11T12:10:54.450Z,-1.65
2022-12-11T12:13:49.194Z,-1.33
2022-12-11T12:16:56.367Z,-1.11
2022-12-11T12:19:38.929Z,-0.81
2022-12-11T12:22:21.611Z,-1.00
2022-12-11T12:25:02.181Z,-0.84
2022-12-11T12:27:55.277Z,-1.19
2022-12-11T12:30:24.188Z,-1.32
2022-12-11T12:33:16.307Z,-1.57
2022-12-11T12:35:55.036Z,-1.57
2022-12-11T12:38:27.789Z,-1.77
2022-12-11T12:41:07.651Z,-1.65
2022-12-11T12:44:01.461Z,-1.73
2022-12-11T12:46:41.901Z,-1.54
2022-12-11T12:49:16.738Z,-1.37
2022-12-11T12:51:45.358Z,-1.37
2022-12-11T12:54:17.015Z,-1.22
2022-12-11T12:56:47.108Z,-1.40
2022-12-11T12:59:23.152Z,-1.23
2022-12-11T13:01:55.513Z,-1.18
2022-12-11T13:07:29.853Z,-0.98
2022-12-11T13:10:08.602Z,-0.94
2022-12-11T13:12:44.060Z,-0.47
2022-12-11T13:15:40.630Z,-0.52
2022-12-11T13:18:34.930Z,-0.36
2022-12-11T13:21:05.561Z,-0.50
2022-12-11T13:23:35.005Z,-0.54
2022-12-11T13:26:04.475Z,-0.57
2022-12-11T13:28:47.190Z,-0.47
2022-12-11T13:31:34.904Z,-0.77
2022-12-11T13:34:16.371Z,-0.88
2022-12-11T13:36:50.953Z,-1.05
2022-12-11T13:39:21.951Z,-1.43
2022-12-11T13:41:53.605Z,-1.61
2022-12-11T13:44:25.796Z,-1.69
2022-12-11T13:46:56.050Z,-1.71
2022-12-11T13:49:27.309Z,-1.63
2022-12-11T13:51:59.532Z,-1.81
2022-12-11T13:54:28.693Z,-1.54
2022-12-11T13:56:59.097Z,-1.40
2022-12-11T13:59:29.900Z,-1.40
2022-12-11T14:02:02.317Z,-1.26
2022-12-11T14:04:31.436Z,-1.36
2022-12-11T14:07:00.731Z,-1.10
2022-12-11T14:09:29.625Z,-1.06
2022-12-11T14:12:01.675Z,-1.12
2022-12-11T14:14:41.468Z,-1.15
2022-12-11T14:17:15.039Z,-1.23
2022-12-11T14:19:48.124Z,-1.22
2022-12-11T14:22:22.323Z,-1.41
2022-12-11T14:24:51.664Z,-1.74
2022-12-11T14:27:20.783Z,-1.60
2022-12-11T14:29:49.406Z,-1.67
2022-12-11T14:32:25.091Z,-1.66
2022-12-11T14:34:54.709Z,-1.95
2022-12-11T14:37:26.595Z,-1.94
2022-12-11T14:39:57.698Z,-2.05
2022-12-11T14:42:30.320Z,-1.84
2022-12-11T14:45:03.095Z,-1.89
2022-12-11T14:47:35.344Z,-1.88
2022-12-11T14:50:07.498Z,-1.97
2022-12-11T14:52:39.521Z,-2.05
2022-12-11T14:55:11.608Z,-2.06
2022-12-11T14:57:42.473Z,-2.24
2022-12-11T15:00:23.765Z,-2.27
2022-12-11T15:03:00.148Z,-2.35
2022-12-11T15:05:28.032Z,-2.49
2022-12-11T15:07:59.724Z,-2.47
2022-12-11T15:10:37.689Z,-2.42
2022-12-11T15:13:08.142Z,-2.55
2022-12-11T15:15:44.617Z,-2.71
2022-12-11T15:18:20.862Z,-2.70
2022-12-11T15:20:52.962Z,-2.78
2022-12-11T15:23:22.336Z,-2.88
2022-12-11T15:25:54.813Z,-3.01
2022-12-11T15:28:30.865Z,-3.05
2022-12-11T15:31:01.198Z,-3.01
2022-12-11T15:33:34.356Z,-3.11
2022-12-11T15:36:04.162Z,-3.10
2022-12-11T15:38:36.729Z,-3.20
2022-12-11T15:41:05.692Z,-3.09
2022-12-11T15:43:37.443Z,-3.22
2022-12-11T15:46:06.316Z,-3.33
2022-12-11T15:48:34.734Z,-3.42
2022-12-11T15:51:03.765Z,-3.42
2022-12-11T15:53:34.496Z,-3.48
2022-12-11T15:56:02.912Z,-3.35
2022-12-11T15:58:31.454Z,-3.46
2022-12-11T16:00:59.289Z,-3.49
2022-12-11T16:03:27.532Z,-3.49
2022-12-11T16:05:55.305Z,-3.57
2022-12-11T16:08:24.664Z,-3.56
2022-12-11T16:10:55.576Z,-3.58
2022-12-11T16:13:23.964Z,-3.56
2022-12-11T16:15:53.850Z,-3.59
2022-12-11T16:18:24.597Z,-3.59
2022-12-11T16:20:53.311Z,-3.58
2022-12-11T16:23:21.918Z,-3.60
2022-12-11T16:25:50.551Z,-3.57
2022-12-11T16:28:21.564Z,-3.71
2022-12-11T16:30:50.092Z,-3.55
2022-12-11T16:33:18.086Z,-3.64
2022-12-11T16:35:45.833Z,-3.65
2022-12-11T16:38:13.626Z,-3.68
2022-12-11T16:40:41.723Z,-3.70
2022-12-11T16:43:09.512Z,-3.80
2022-12-11T16:45:38.635Z,-3.71
2022-12-11T16:48:06.732Z,-3.69
2022-12-11T16:50:36.118Z,-3.74
2022-12-11T16:53:03.901Z,-3.87
2022-12-11T16:55:31.734Z,-3.87
2022-12-11T16:57:59.448Z,-3.92
2022-12-11T17:00:27.215Z,-3.92
2022-12-11T17:02:57.448Z,-3.97
2022-12-11T17:05:25.267Z,-3.90
2022-12-11T17:07:53.096Z,-3.95
2022-12-11T17:10:20.901Z,-3.95
2022-12-11T17:12:48.659Z,-3.94
2022-12-11T17:15:16.525Z,-4.04
2022-12-11T17:17:44.347Z,-4.01
2022-12-11T17:20:13.972Z,-4.06
2022-12-11T17:22:41.876Z,-4.14
2022-12-11T17:25:10.367Z,-4.13
2022-12-11T17:27:38.901Z,-4.11
2022-12-11T17:30:07.662Z,-4.09
2022-12-11T17:32:35.761Z,-4.22
2022-12-11T17:35:03.854Z,-4.20
2022-12-11T17:37:33.679Z,-4.29
2022-12-11T17:40:01.393Z,-4.47
2022-12-11T17:42:29.103Z,-4.39
2022-12-11T17:44:56.810Z,-4.47
2022-12-11T17:47:24.686Z,-4.52
2022-12-11T17:49:52.842Z,-4.31
2022-12-11T17:52:20.625Z,-4.28
2022-12-11T17:54:49.826Z,-4.26
2022-12-11T17:57:17.591Z,-4.23
2022-12-11T17:59:45.848Z,-4.24
2022-12-11T18:02:13.792Z,-4.23
2022-12-11T18:04:41.609Z,-4.26
2022-12-11T18:07:09.411Z,-4.30
2022-12-11T18:09:40.098Z,-4.23
2022-12-11T18:12:09.759Z,-4.23
2022-12-11T18:14:38.016Z,-4.27
2022-12-11T18:17:06.123Z,-4.30
2022-12-11T18:19:33.885Z,-4.29
2022-12-11T18:22:01.794Z,-4.43
2022-12-11T18:24:31.885Z,-4.54
2022-12-11T18:27:00.262Z,-4.52
2022-12-11T18:29:29.882Z,-4.52
2022-12-11T18:31:57.693Z,-4.47
2022-12-11T18:34:25.504Z,-4.36
2022-12-11T18:36:53.353Z,-4.42
2022-12-11T18:39:21.178Z,-4.45
2022-12-11T18:42:03.507Z,-4.46
2022-12-11T18:44:38.234Z,-4.43
2022-12-11T18:47:07.046Z,-4.42
2022-12-11T18:49:34.858Z,-4.44
2022-12-11T18:52:02.642Z,-4.27
2022-12-11T18:54:30.473Z,-4.45
2022-12-11T18:56:58.258Z,-4.49
2022-12-11T18:59:26.141Z,-4.59
2022-12-11T19:01:55.340Z,-4.57
2022-12-11T19:04:23.207Z,-4.56
2022-12-11T19:06:51.000Z,-4.56
2022-12-11T19:09:18.845Z,-4.65
2022-12-11T19:11:47.820Z,-4.62
2022-12-11T19:14:15.584Z,-4.57
2022-12-11T19:16:45.739Z,-4.67
2022-12-11T19:19:17.478Z,-4.87
2022-12-11T19:21:45.963Z,-4.88
2022-12-11T19:24:16.618Z,-4.98
2022-12-11T19:26:45.447Z,-5.05
2022-12-11T19:29:21.633Z,-4.97
2022-12-11T19:31:49.912Z,-4.73
2022-12-11T19:34:19.233Z,-4.74
2022-12-11T19:36:47.060Z,-4.75
2022-12-11T19:39:15.341Z,-4.73
2022-12-11T19:41:43.317Z,-4.80
2022-12-11T19:44:12.188Z,-4.77
2022-12-11T19:46:40.758Z,-4.79
2022-12-11T19:49:08.717Z,-4.89
2022-12-11T19:51:40.630Z,-4.85
2022-12-11T19:54:10.069Z,-4.89
2022-12-11T19:56:38.069Z,-4.73
2022-12-11T19:59:08.346Z,-4.74
2022-12-11T20:01:38.370Z,-4.63
2022-12-11T20:04:08.357Z,-4.62
2022-12-11T20:06:40.946Z,-4.47
2022-12-11T20:09:11.996Z,-4.44
2022-12-11T20:11:40.835Z,-4.38
2022-12-11T20:14:08.846Z,-4.34
2022-12-11T20:17:09.458Z,-4.26
2022-12-11T20:19:24.391Z,-4.25
2022-12-11T20:21:53.553Z,-4.26
2022-12-11T20:24:21.347Z,-4.27
2022-12-11T20:26:49.788Z,-4.33
2022-12-11T20:29:17.615Z,-4.26
2022-12-11T20:31:46.781Z,-3.91
2022-12-11T20:34:15.143Z,-4.01
2022-12-11T20:36:42.894Z,-4.04
2022-12-11T20:39:12.124Z,-3.84
2022-12-11T20:41:39.841Z,-3.63
2022-12-11T20:44:08.122Z,-3.54
2022-12-11T20:46:35.926Z,-3.57
2022-12-11T20:49:04.309Z,-3.54
2022-12-11T20:51:32.754Z,-3.56
2022-12-11T20:54:01.317Z,-3.59
2022-12-11T20:56:31.634Z,-3.39
2022-12-11T20:59:00.699Z,-3.49
2022-12-11T21:01:30.701Z,-3.40
2022-12-11T21:03:59.017Z,-3.44
2022-12-11T21:06:31.070Z,-3.32
2022-12-11T21:09:00.351Z,-3.39
2022-12-11T21:11:28.708Z,-3.61
2022-12-11T21:13:58.109Z,-3.42
2022-12-11T21:16:26.274Z,-3.37
2022-12-11T21:18:54.412Z,-3.38
2022-12-11T21:21:22.281Z,-3.38
2022-12-11T21:23:50.348Z,-3.50
2022-12-11T21:26:19.835Z,-3.99
2022-12-11T21:28:47.660Z,-3.86
2022-12-11T21:31:19.600Z,-3.84
2022-12-11T21:33:47.557Z,-3.66
2022-12-11T21:36:16.803Z,-3.86
2022-12-11T21:38:46.122Z,-3.97
2022-12-11T21:41:16.984Z,-4.23
2022-12-11T21:44:56.205Z,-3.84
2022-12-11T21:46:35.357Z,-3.99
2022-12-11T21:49:03.292Z,-3.85
2022-12-11T21:51:37.144Z,-4.18
2022-12-11T21:54:09.201Z,-3.79
2022-12-11T21:56:37.389Z,-3.81
2022-12-11T21:59:05.419Z,-4.02
2022-12-11T22:01:38.208Z,-3.86
2022-12-11T22:04:06.741Z,-3.96
2022-12-11T22:06:35.065Z,-4.10
2022-12-11T22:09:03.061Z,-3.92
2022-12-11T22:11:33.482Z,-3.96
2022-12-11T22:14:02.131Z,-3.96
2022-12-11T22:16:29.951Z,-3.99
2022-12-11T22:18:59.186Z,-4.03
2022-12-11T22:21:27.283Z,-3.92
2022-12-11T22:23:55.088Z,-3.83
2022-12-11T22:26:25.057Z,-3.77
2022-12-11T22:28:54.191Z,-3.97
2022-12-11T22:31:23.895Z,-4.03
2022-12-11T22:33:53.698Z,-3.86
2022-12-11T22:36:23.471Z,-3.99
2022-12-11T22:38:51.311Z,-4.29
2022-12-11T22:41:24.981Z,-4.00
2022-12-11T22:43:53.429Z,-4.10
2022-12-11T22:46:25.648Z,-3.95
2022-12-11T22:48:53.908Z,-4.03
2022-12-11T22:51:23.096Z,-3.89
2022-12-11T22:53:50.933Z,-3.84
2022-12-11T22:56:19.031Z,-3.92
2022-12-11T22:58:46.973Z,-3.97
2022-12-11T23:01:18.198Z,-4.04
2022-12-11T23:03:46.385Z,-3.87
2022-12-11T23:06:16.393Z,-3.91
2022-12-11T23:08:46.171Z,-4.03
2022-12-11T23:11:16.308Z,-3.99
2022-12-11T23:13:44.369Z,-3.95
2022-12-11T23:16:13.101Z,-3.91
2022-12-11T23:18:40.915Z,-3.89
2022-12-11T23:21:09.813Z,-4.02
2022-12-11T23:23:38.112Z,-3.88
2022-12-11T23:26:09.554Z,-3.98
2022-12-11T23:28:37.537Z,-3.79
2022-12-11T23:31:05.931Z,-4.04
2022-12-11T23:33:33.741Z,-4.13
2022-12-11T23:36:01.936Z,-4.18
2022-12-11T23:38:29.764Z,-3.93
2022-12-11T23:41:00.115Z,-3.98
2022-12-11T23:43:29.321Z,-3.97
2022-12-11T23:45:57.647Z,-3.82
2022-12-11T23:48:25.630Z,-3.96
2022-12-11T23:50:53.632Z,-3.90
2022-12-11T23:53:21.426Z,-3.82
2022-12-11T23:55:49.713Z,-4.08
2022-12-11T23:58:17.519Z,-4.14
